Time;durP1;ratioP1;P1;durP2;ratioP2;P2;SDS_P1;SDS_P2;PMS_P1;PMS_P2;Temp;Humidity;BMP_temperature;BMP_pressure;BME280_temperature;BME280_humidity;BME280_pressure;Samples;Min_cycle;Max_cycle;Signal;HPM_P1;HPM_P2
2023/08/31 00:01:33;;;;;;;4.03;3.63;;;;;;;24.85;48.44;98690.56;4996529;28;20276;-63
2023/08/31 00:04:00;;;;;;;4.07;3.77;;;;;;;24.80;48.77;98694.19;4994464;28;20235;-63
2023/08/31 00:06:27;;;;;;;4.07;3.83;;;;;;;24.88;48.16;98687.22;4993354;28;20195;-63
2023/08/31 00:08:54;;;;;;;4.40;3.70;;;;;;;24.93;47.33;98682.47;5022392;28;20210;-63
2023/08/31 00:11:20;;;;;;;3.43;3.23;;;;;;;24.82;48.49;98683.81;5000601;28;20198;-64
2023/08/31 00:13:47;;;;;;;4.10;3.53;;;;;;;24.90;48.12;98679.56;4994074;28;20208;-64
2023/08/31 00:16:15;;;;;;;4.13;3.87;;;;;;;24.94;47.91;98689.53;4993522;28;20259;-64
2023/08/31 00:18:42;;;;;;;4.13;3.83;;;;;;;24.91;47.10;98692.84;5000408;28;20198;-63
2023/08/31 00:21:09;;;;;;;4.97;3.87;;;;;;;24.81;48.35;98695.00;5013152;28;20222;-64
2023/08/31 00:23:36;;;;;;;4.20;3.80;;;;;;;24.76;47.51;98695.94;5011904;28;20201;-64
2023/08/31 00:26:03;;;;;;;6.67;4.20;;;;;;;24.75;47.59;98697.03;5012901;28;20201;-64
2023/08/31 00:28:30;;;;;;;4.23;3.73;;;;;;;24.51;48.72;98691.03;5008151;28;20287;-64
2023/08/31 00:30:57;;;;;;;4.63;3.60;;;;;;;24.43;49.17;98696.38;4992459;28;20261;-64
2023/08/31 00:33:27;;;;;;;4.00;3.70;;;;;;;24.50;49.25;98702.22;4993726;28;20288;-64
2023/08/31 00:35:56;;;;;;;4.63;4.23;;;;;;;24.61;48.17;98700.91;4993122;28;20634;-64
2023/08/31 00:38:22;;;;;;;4.03;3.80;;;;;;;24.71;50.00;98704.19;4996633;28;20530;-63
2023/08/31 00:40:50;;;;;;;4.37;4.00;;;;;;;24.74;47.92;98709.00;5013177;28;20205;-62
2023/08/31 00:43:17;;;;;;;4.20;3.90;;;;;;;24.75;47.61;98716.03;5013219;28;20208;-63
2023/08/31 00:45:45;;;;;;;5.03;4.20;;;;;;;24.82;49.58;98713.72;5012852;28;20231;-62
2023/08/31 00:48:13;;;;;;;4.50;3.83;;;;;;;24.85;48.72;98710.38;5011161;28;20194;-63
2023/08/31 00:50:41;;;;;;;3.97;3.53;;;;;;;24.96;49.62;98709.03;4993266;28;20293;-63
2023/08/31 00:53:08;;;;;;;6.13;3.73;;;;;;;25.10;50.88;98702.75;4993601;28;20257;-63
2023/08/31 00:55:35;;;;;;;6.40;3.77;;;;;;;25.23;49.27;98707.31;4993281;28;20720;-63
2023/08/31 00:58:02;;;;;;;4.47;4.07;;;;;;;25.34;48.30;98714.94;4993448;28;20198;-64
2023/08/31 01:00:37;;;;;;;5.50;4.27;;;;;;;25.39;47.43;98708.56;5012748;28;20229;-64
2023/08/31 01:03:13;;;;;;;5.83;3.97;;;;;;;25.39;47.68;98719.44;5012467;28;20328;-63
2023/08/31 01:05:48;;;;;;;3.70;3.40;;;;;;;25.37;48.09;98716.22;5012715;28;20236;-63
2023/08/31 01:08:25;;;;;;;3.80;3.50;;;;;;;25.31;49.44;98712.03;4997921;28;20273;-63
2023/08/31 01:11:04;;;;;;;3.83;3.53;;;;;;;25.31;47.75;98720.19;4992271;28;20427;-65
2023/08/31 01:13:32;;;;;;;4.07;3.77;;;;;;;25.34;48.66;98719.53;4992997;28;20187;-62
2023/08/31 01:16:04;;;;;;;3.87;3.57;;;;;;;25.35;48.39;98721.19;4992308;28;20632;-62
2023/08/31 01:18:35;;;;;;;4.23;3.63;;;;;;;25.31;48.13;98722.91;5007037;28;20182;-62
2023/08/31 01:21:12;;;;;;;8.57;3.47;;;;;;;25.32;48.89;98716.34;5012035;28;20646;-62
2023/08/31 01:23:54;;;;;;;5.23;3.20;;;;;;;25.24;47.92;98725.22;5011867;28;20642;-62
2023/08/31 01:26:21;;;;;;;3.53;2.70;;;;;;;25.23;50.36;98727.13;4999428;28;20199;-63
2023/08/31 01:28:49;;;;;;;4.67;3.47;;;;;;;25.32;50.54;98733.47;4992636;28;20191;-62
2023/08/31 01:31:16;;;;;;;3.80;3.10;;;;;;;25.40;48.37;98734.63;4992449;28;20206;-62
2023/08/31 01:33:43;;;;;;;3.47;3.03;;;;;;;25.42;47.57;98737.84;4993404;28;20292;-62
2023/08/31 01:36:18;;;;;;;3.40;3.10;;;;;;;25.41;46.62;98730.78;5000832;28;20193;-62
2023/08/31 01:38:49;;;;;;;3.90;2.90;;;;;;;25.43;49.10;98729.38;5012178;28;20243;-62
2023/08/31 01:41:20;;;;;;;3.37;3.13;;;;;;;25.49;46.45;98749.09;5011581;28;20186;-63
2023/08/31 01:43:49;;;;;;;2.87;2.67;;;;;;;25.51;49.35;98750.38;5011905;28;20190;-62
2023/08/31 01:46:17;;;;;;;3.50;3.20;;;;;;;25.57;49.02;98748.34;5001947;28;20241;-62
2023/08/31 01:48:44;;;;;;;3.43;2.70;;;;;;;25.65;49.09;98753.84;4992564;28;20277;-63
2023/08/31 01:51:11;;;;;;;3.97;3.13;;;;;;;25.65;47.14;98753.03;4992301;28;20195;-63
2023/08/31 01:53:38;;;;;;;3.37;2.97;;;;;;;25.70;47.53;98745.53;4992888;28;20253;-63
2023/08/31 01:56:05;;;;;;;4.03;3.30;;;;;;;25.64;46.72;98757.66;5011810;28;20198;-63
2023/08/31 01:58:33;;;;;;;6.60;2.80;;;;;;;25.48;46.77;98753.72;5011622;28;20190;-63
2023/08/31 02:01:00;;;;;;;3.20;2.87;;;;;;;25.40;45.89;98762.66;5011913;28;20281;-63
2023/08/31 02:03:27;;;;;;;3.80;3.30;;;;;;;25.31;46.00;98763.69;5011569;28;20229;-63
2023/08/31 02:05:53;;;;;;;5.97;2.77;;;;;;;25.06;45.97;98767.00;4991860;28;20214;-63
2023/08/31 02:08:20;;;;;;;4.37;2.60;;;;;;;24.84;46.79;98765.03;5021900;28;20780;-64
2023/08/31 02:10:48;;;;;;;4.50;3.20;;;;;;;24.73;47.15;98766.34;5031408;28;20750;-64
2023/08/31 02:13:15;;;;;;;2.77;2.57;;;;;;;24.53;47.71;98764.84;5031040;28;20760;-63
2023/08/31 02:15:43;;;;;;;3.07;2.77;;;;;;;24.43;47.11;98762.34;5011465;28;20227;-64
2023/08/31 02:18:10;;;;;;;2.80;2.60;;;;;;;24.24;47.58;98760.84;5011381;28;20252;-63
2023/08/31 02:20:37;;;;;;;2.80;2.60;;;;;;;24.23;48.21;98764.69;5011452;28;20198;-63
2023/08/31 02:23:04;;;;;;;4.30;3.07;;;;;;;24.26;48.17;98764.88;5013227;28;20283;-63
2023/08/31 02:25:30;;;;;;;9.10;3.43;;;;;;;24.19;48.27;98759.06;4998935;28;20728;-64
2023/08/31 02:27:57;;;;;;;3.83;3.10;;;;;;;24.19;47.72;98764.50;4995746;28;20630;-63
2023/08/31 02:30:24;;;;;;;5.23;3.00;;;;;;;24.15;48.04;98768.09;4995767;28;20662;-64
2023/08/31 02:32:52;;;;;;;4.20;2.83;;;;;;;24.20;47.79;98770.69;5002619;28;20228;-63
2023/08/31 02:35:18;;;;;;;4.10;2.90;;;;;;;24.28;48.04;98772.72;5015753;28;20256;-64
2023/08/31 02:37:45;;;;;;;3.70;2.70;;;;;;;24.37;47.39;98766.28;5015617;28;20204;-63
2023/08/31 02:40:12;;;;;;;3.37;3.07;;;;;;;24.34;47.20;98766.88;5015058;28;20255;-64
2023/08/31 02:42:39;;;;;;;3.33;3.13;;;;;;;24.32;46.85;98769.09;5008890;28;20214;-64
2023/08/31 02:45:07;;;;;;;3.43;3.13;;;;;;;24.28;47.15;98773.53;4995134;28;20204;-63
2023/08/31 02:47:33;;;;;;;3.23;2.93;;;;;;;24.17;47.49;98772.13;4995422;28;20201;-62
2023/08/31 02:50:01;;;;;;;6.53;3.60;;;;;;;24.18;47.21;98784.56;4995268;28;20202;-62
2023/08/31 02:52:28;;;;;;;6.97;3.37;;;;;;;24.17;47.64;98788.41;4998310;28;20625;-62
2023/08/31 02:54:55;;;;;;;5.93;3.00;;;;;;;24.23;47.33;98789.94;5014483;28;20627;-63
2023/08/31 02:57:22;;;;;;;3.10;2.80;;;;;;;24.23;47.66;98792.63;5014492;28;20691;-63
2023/08/31 02:59:50;;;;;;;3.37;3.00;;;;;;;24.13;47.72;98792.81;5014413;28;20255;-64
2023/08/31 03:02:17;;;;;;;3.67;3.37;;;;;;;24.14;47.63;98802.56;5011801;28;20279;-63
2023/08/31 03:04:44;;;;;;;3.47;3.27;;;;;;;24.10;48.21;98798.06;4994504;28;20692;-63
2023/08/31 03:07:13;;;;;;;3.83;3.10;;;;;;;24.17;48.32;98803.88;5005871;28;20627;-62
2023/08/31 03:09:40;;;;;;;5.87;3.40;;;;;;;24.18;48.16;98811.72;5033789;28;20232;-62
2023/08/31 03:12:07;;;;;;;5.03;3.07;;;;;;;24.34;49.07;98810.31;5031526;28;20205;-63
2023/08/31 03:14:34;;;;;;;3.30;3.00;;;;;;;24.50;48.63;98811.63;4994845;28;20257;-64
2023/08/31 03:17:01;;;;;;;6.90;3.80;;;;;;;24.60;48.18;98807.91;4994760;28;20198;-64
2023/08/31 03:19:27;;;;;;;3.60;2.90;;;;;;;24.66;48.36;98810.25;4994195;28;20250;-64
2023/08/31 03:21:54;;;;;;;5.37;3.37;;;;;;;24.70;47.94;98813.94;4994639;28;20230;-64
2023/08/31 03:24:23;;;;;;;7.20;3.33;;;;;;;24.74;48.26;98820.38;5009713;28;20201;-64
2023/08/31 03:26:49;;;;;;;15.80;3.57;;;;;;;24.80;48.87;98815.66;5014558;28;20193;-64
2023/08/31 03:29:16;;;;;;;5.20;3.00;;;;;;;24.80;47.88;98802.06;5014090;28;20202;-65
2023/08/31 03:31:43;;;;;;;5.07;3.23;;;;;;;24.74;47.54;98806.81;5014029;28;20198;-64
2023/08/31 03:34:09;;;;;;;4.50;3.80;;;;;;;24.63;47.70;98802.69;5009976;28;20222;-63
2023/08/31 03:36:36;;;;;;;3.37;3.17;;;;;;;24.48;47.62;98804.88;5013453;28;20251;-63
2023/08/31 03:39:04;;;;;;;27.73;4.37;;;;;;;24.40;47.96;98797.44;5014022;28;20221;-64
2023/08/31 03:41:32;;;;;;;4.13;3.20;;;;;;;24.31;48.64;98799.25;5012928;28;20202;-65
2023/08/31 03:43:59;;;;;;;7.53;3.80;;;;;;;24.23;49.13;98798.06;4993482;28;20312;-62
2023/08/31 03:46:26;;;;;;;3.50;3.13;;;;;;;24.34;49.36;98806.81;4993797;28;20333;-62
2023/08/31 03:48:53;;;;;;;6.87;3.30;;;;;;;24.27;48.11;98807.22;4993620;28;20615;-63
2023/08/31 03:51:19;;;;;;;4.17;3.57;;;;;;;24.08;48.58;98806.50;4994052;28;20325;-64
2023/08/31 03:53:46;;;;;;;4.87;3.33;;;;;;;24.01;50.28;98806.06;4992801;28;20210;-64
2023/08/31 03:56:13;;;;;;;4.20;3.27;;;;;;;23.91;49.22;98813.59;4993268;28;20238;-63
2023/08/31 03:58:41;;;;;;;8.57;3.73;;;;;;;23.83;49.01;98825.09;4993383;28;20198;-63
2023/08/31 04:01:09;;;;;;;5.37;3.63;;;;;;;23.83;49.05;98819.66;4993536;28;20285;-63
2023/08/31 04:03:36;;;;;;;4.50;3.50;;;;;;;23.79;49.17;98824.91;4992601;28;20228;-63
2023/08/31 04:06:04;;;;;;;4.07;3.63;;;;;;;23.90;49.07;98829.06;4993984;28;20194;-63
2023/08/31 04:08:31;;;;;;;8.33;3.80;;;;;;;23.99;48.41;98830.00;5026436;28;20201;-63
2023/08/31 04:10:58;;;;;;;4.70;3.70;;;;;;;24.10;48.59;98831.41;5033267;28;20199;-63
2023/08/31 04:13:24;;;;;;;11.77;4.07;;;;;;;24.25;48.15;98833.03;5020110;28;20267;-69
2023/08/31 04:15:53;;;;;;;10.70;3.53;;;;;;;24.43;47.35;98843.81;5013455;28;20262;-62
2023/08/31 04:18:20;;;;;;;5.70;3.27;;;;;;;24.58;48.28;98857.09;5012495;28;20568;-63
2023/08/31 04:20:51;;;;;;;13.70;4.20;;;;;;;24.71;48.51;98859.03;5012787;28;20255;-64
2023/08/31 04:23:18;;;;;;;4.33;3.23;;;;;;;24.92;46.69;98862.91;5002624;28;20796;-64
2023/08/31 04:25:45;;;;;;;6.23;3.63;;;;;;;25.30;46.45;98868.09;4993524;28;20272;-64
2023/08/31 04:28:12;;;;;;;6.57;3.73;;;;;;;25.73;44.93;98874.72;4992924;28;20201;-64
2023/08/31 04:30:39;;;;;;;11.40;3.90;;;;;;;25.99;43.74;98886.59;4993285;28;20199;-64
2023/08/31 04:33:08;;;;;;;7.10;3.87;;;;;;;26.39;42.74;98891.00;4999293;28;20658;-63
2023/08/31 04:35:35;;;;;;;8.93;4.70;;;;;;;26.80;41.45;98894.25;5012455;28;20344;-64
2023/08/31 04:38:01;;;;;;;9.43;3.73;;;;;;;27.25;40.18;98888.28;5011841;28;20194;-64
2023/08/31 04:40:29;;;;;;;4.17;3.80;;;;;;;27.61;39.82;98893.44;5012250;28;20198;-64
2023/08/31 04:42:55;;;;;;;4.43;3.67;;;;;;;28.04;39.16;98894.22;4993454;28;20223;-66
2023/08/31 04:45:22;;;;;;;6.90;3.80;;;;;;;28.51;37.87;98902.16;4992487;28;20199;-66
2023/08/31 04:47:49;;;;;;;9.83;4.23;;;;;;;28.87;37.26;98901.72;4992260;28;20202;-66
2023/08/31 04:50:17;;;;;;;4.80;3.90;;;;;;;29.26;36.87;98916.97;4992549;28;20226;-66
2023/08/31 04:52:44;;;;;;;14.33;4.27;;;;;;;29.66;36.64;98910.72;5007051;28;20658;-66
2023/08/31 04:55:12;;;;;;;4.03;3.57;;;;;;;30.22;34.24;98921.03;5011969;28;20253;-66
2023/08/31 04:57:39;;;;;;;9.07;4.00;;;;;;;30.58;34.19;98921.09;5011950;28;20198;-67
2023/08/31 05:00:08;;;;;;;5.93;4.07;;;;;;;30.70;33.69;98932.13;5011778;28;20194;-66
2023/08/31 05:02:35;;;;;;;3.97;3.57;;;;;;;30.82;35.20;98920.38;4996132;28;20305;-65
2023/08/31 05:05:02;;;;;;;36.70;4.77;;;;;;;31.07;33.30;98919.22;4992017;28;20253;-64
2023/08/31 05:07:30;;;;;;;5.20;3.73;;;;;;;31.28;32.48;98917.97;5007857;28;20193;-66
2023/08/31 05:09:57;;;;;;;5.20;3.63;;;;;;;31.40;32.12;98926.19;5030923;28;20197;-65
2023/08/31 05:12:24;;;;;;;6.20;3.20;;;;;;;31.44;32.49;98927.09;4999115;28;20195;-66
2023/08/31 05:14:50;;;;;;;14.60;3.53;;;;;;;31.84;31.82;98930.69;4992061;28;20194;-65
2023/08/31 05:17:17;;;;;;;4.77;3.37;;;;;;;32.10;31.53;98924.75;4991387;28;20207;-64
2023/08/31 05:19:44;;;;;;;19.60;3.83;;;;;;;32.37;31.21;98929.44;4998569;28;20186;-64
2023/08/31 05:22:10;;;;;;;5.60;3.33;;;;;;;32.85;30.74;98924.44;5011677;28;20198;-64
2023/08/31 05:24:38;;;;;;;4.63;3.40;;;;;;;33.24;29.76;98934.41;5010998;28;20257;-64
2023/08/31 05:27:05;;;;;;;7.07;3.57;;;;;;;33.23;29.33;98932.84;5011062;28;20194;-64
2023/08/31 05:29:32;;;;;;;4.73;2.90;;;;;;;33.17;29.36;98928.78;5009262;28;20190;-65
2023/08/31 05:31:59;;;;;;;5.47;3.17;;;;;;;33.09;29.40;98927.00;5020169;28;20193;-64
2023/08/31 05:34:26;;;;;;;5.57;3.13;;;;;;;32.87;29.42;98929.59;5020951;28;20240;-64
2023/08/31 05:36:52;;;;;;;5.00;2.80;;;;;;;32.79;29.75;98939.59;5016359;28;20735;-64
2023/08/31 05:39:19;;;;;;;9.07;3.90;;;;;;;32.69;29.92;98942.06;5017847;28;20252;-63
2023/08/31 05:41:47;;;;;;;4.17;3.47;;;;;;;32.42;30.07;98940.97;5019540;28;20242;-63
2023/08/31 05:44:14;;;;;;;25.47;5.97;;;;;;;32.68;30.15;98938.53;5014237;28;20249;-63
2023/08/31 05:46:41;;;;;;;6.17;3.00;;;;;;;32.86;29.50;98945.31;5016264;28;20674;-73
2023/08/31 05:49:07;;;;;;;5.40;3.20;;;;;;;32.80;29.48;98935.72;5014771;28;20236;-63
2023/08/31 05:51:34;;;;;;;9.20;3.40;;;;;;;32.99;29.55;98940.53;4996507;28;20632;-66
2023/08/31 05:54:01;;;;;;;17.63;3.67;;;;;;;32.87;29.82;98941.38;4990476;28;20202;-72
2023/08/31 05:56:27;;;;;;;3.10;2.90;;;;;;;32.54;29.74;98949.16;4992943;28;20325;-75
2023/08/31 05:58:56;;;;;;;12.10;4.20;;;;;;;32.73;29.79;98949.28;5000211;28;20202;-75
2023/08/31 06:01:23;;;;;;;5.43;3.40;;;;;;;33.09;29.36;98943.53;4984712;28;20624;-76
2023/08/31 06:03:49;;;;;;;7.17;2.90;;;;;;;33.12;29.13;98953.03;4986047;28;20777;-71
2023/08/31 06:06:16;;;;;;;7.23;2.70;;;;;;;33.04;29.07;98951.25;5002225;28;20202;-74
2023/08/31 06:08:43;;;;;;;3.77;2.83;;;;;;;32.90;28.90;98946.19;5008231;28;20882;-75
2023/08/31 06:11:10;;;;;;;11.37;3.60;;;;;;;32.11;30.10;98943.63;4994597;28;20194;-70
2023/08/31 06:13:39;;;;;;;11.40;3.20;;;;;;;31.84;30.57;98946.34;5003953;28;20202;-75
2023/08/31 06:16:07;;;;;;;5.37;2.87;;;;;;;32.21;30.42;98951.38;5011682;28;20241;-77
2023/08/31 06:18:34;;;;;;;6.97;3.00;;;;;;;32.16;30.66;98948.88;5011075;28;20190;-75
2023/08/31 06:21:01;;;;;;;22.93;4.27;;;;;;;32.19;30.37;98948.19;5003980;28;20198;-78
2023/08/31 06:23:27;;;;;;;10.57;2.93;;;;;;;32.18;30.65;98954.81;5009316;28;20228;-75
2023/08/31 06:25:54;;;;;;;17.50;3.17;;;;;;;32.44;30.26;98955.19;5009051;28;20553;-73
2023/08/31 06:28:21;;;;;;;21.70;3.47;;;;;;;32.32;30.32;98951.69;4997584;28;20741;-78
2023/08/31 06:30:47;;;;;;;9.33;2.43;;;;;;;32.57;30.30;98969.66;4991616;28;20487;-65
2023/08/31 06:33:17;;;;;;;14.53;3.43;;;;;;;32.85;30.81;98957.47;4994922;28;20760;-65
2023/08/31 06:35:46;;;;;;;8.63;3.07;;;;;;;32.67;29.89;98975.44;4987375;28;20203;-63
2023/08/31 06:38:13;;;;;;;4.97;2.47;;;;;;;32.64;29.55;98964.34;4988508;28;20249;-65
2023/08/31 06:40:39;;;;;;;15.73;3.23;;;;;;;32.12;31.00;98975.47;4990023;28;20245;-65
2023/08/31 06:43:06;;;;;;;23.40;3.50;;;;;;;32.35;30.37;98971.06;4996065;28;20230;-65
2023/08/31 06:45:34;;;;;;;5.77;2.80;;;;;;;32.46;30.01;98969.38;4990475;28;20199;-63
2023/08/31 06:48:00;;;;;;;4.33;3.00;;;;;;;32.59;29.84;98970.13;4989699;28;20199;-64
2023/08/31 06:50:28;;;;;;;3.00;2.13;;;;;;;32.51;29.71;98971.06;5001400;28;20330;-65
2023/08/31 06:52:55;;;;;;;7.13;2.73;;;;;;;31.73;31.13;98972.69;5018217;28;20630;-66
2023/08/31 06:55:22;;;;;;;3.73;2.43;;;;;;;31.55;30.91;98971.34;5007838;28;20237;-65
2023/08/31 06:57:49;;;;;;;3.83;2.33;;;;;;;31.62;31.59;98966.91;5012848;28;20198;-66
2023/08/31 07:00:16;;;;;;;5.17;2.37;;;;;;;31.97;31.43;98973.44;5016197;28;20193;-65
2023/08/31 07:02:43;;;;;;;2.67;2.43;;;;;;;32.04;30.36;98975.59;5012820;28;20839;-65
2023/08/31 07:05:11;;;;;;;10.93;3.20;;;;;;;31.61;31.47;98970.75;4992269;28;20579;-64
2023/08/31 07:07:39;;;;;;;3.17;2.20;;;;;;;31.55;31.62;98972.16;4999085;28;20193;-66
2023/08/31 07:10:07;;;;;;;7.37;2.67;;;;;;;31.60;32.25;98974.66;5014131;28;20265;-64
2023/08/31 07:12:37;;;;;;;2.77;2.00;;;;;;;31.74;31.51;98975.09;4993710;28;20203;-75
2023/08/31 07:15:12;;;;;;;3.63;2.30;;;;;;;31.77;31.39;98968.94;4996234;28;20205;-74
2023/08/31 07:17:45;;;;;;;4.73;2.40;;;;;;;32.00;31.16;98967.25;4994867;28;20209;-73
2023/08/31 07:24:18;;;;;;;8.13;2.43;;;;;;;31.84;31.51;98963.66;4990676;28;20288;-74
2023/08/31 07:26:45;;;;;;;4.17;2.57;;;;;;;32.06;31.26;98974.09;5008082;28;20209;-74
2023/08/31 07:29:48;;;;;;;3.70;2.53;;;;;;;32.27;30.32;98971.97;5015925;28;20235;-75
2023/08/31 07:32:15;;;;;;;3.70;2.37;;;;;;;31.83;30.59;98978.53;4988822;28;20269;-65
2023/08/31 07:34:42;;;;;;;7.93;2.53;;;;;;;32.16;30.79;98970.06;4989967;28;20230;-67
2023/08/31 07:37:08;;;;;;;3.97;2.50;;;;;;;32.65;30.32;98977.75;4997660;28;20209;-65
2023/08/31 07:39:36;;;;;;;4.67;2.60;;;;;;;32.87;29.88;98974.41;5000629;28;20213;-65
2023/08/31 07:42:03;;;;;;;6.50;2.70;;;;;;;33.06;29.62;98982.78;4991937;28;20195;-64
2023/08/31 07:44:31;;;;;;;4.00;2.13;;;;;;;33.04;29.38;98981.53;4990428;28;20671;-64
2023/08/31 07:46:57;;;;;;;3.33;2.10;;;;;;;33.12;29.28;98975.81;5007129;28;20202;-64
2023/08/31 07:49:24;;;;;;;4.95;2.28;;;;;;;33.18;29.57;98979.13;5003714;28;20202;-65
2023/08/31 07:51:51;;;;;;;4.47;2.23;;;;;;;33.06;28.62;98971.75;4991685;28;20277;-64
2023/08/31 07:54:21;;;;;;;4.70;2.05;;;;;;;33.25;28.96;98973.78;4998483;28;20198;-65
2023/08/31 07:56:49;;;;;;;4.40;1.85;;;;;;;33.40;28.49;98973.00;4996838;28;20222;-64
2023/08/31 07:59:17;;;;;;;4.07;2.35;;;;;;;33.80;28.47;98967.19;5001449;28;20206;-64
2023/08/31 08:01:43;;;;;;;2.15;1.95;;;;;;;33.88;28.05;98974.50;5002331;28;20194;-65
2023/08/31 08:04:11;;;;;;;2.65;2.40;;;;;;;33.57;28.33;98960.78;5000027;28;20218;-64
2023/08/31 08:06:38;;;;;;;3.00;2.33;;;;;;;33.89;28.62;98960.34;5000899;28;20210;-65
2023/08/31 08:09:05;;;;;;;6.38;2.33;;;;;;;34.02;27.60;98963.75;5006819;28;20201;-64
2023/08/31 08:11:32;;;;;;;8.35;2.30;;;;;;;34.14;27.95;98967.16;5008515;28;20202;-63
2023/08/31 08:14:00;;;;;;;8.70;2.20;;;;;;;34.54;27.40;98962.03;5020176;28;20264;-64
2023/08/31 08:16:27;;;;;;;3.90;2.08;;;;;;;35.10;27.33;98965.00;5003500;28;20195;-64
2023/08/31 08:18:53;;;;;;;3.50;2.38;;;;;;;35.41;26.24;98953.69;4997907;28;20194;-64
2023/08/31 08:21:20;;;;;;;5.80;1.92;;;;;;;35.37;25.83;98958.38;5020455;28;20197;-63
2023/08/31 08:23:46;;;;;;;4.53;2.38;;;;;;;35.49;25.54;98961.72;4995785;28;20213;-63
2023/08/31 08:26:13;;;;;;;3.08;1.80;;;;;;;35.00;25.85;98960.13;5002591;28;20194;-63
2023/08/31 08:28:40;;;;;;;4.25;2.40;;;;;;;34.89;26.70;98956.38;5003836;28;20253;-63
2023/08/31 08:31:08;;;;;;;5.13;2.53;;;;;;;35.04;27.23;98955.47;5009270;28;20265;-66
2023/08/31 08:33:34;;;;;;;5.95;1.90;;;;;;;34.94;26.45;98959.63;4994574;28;20238;-64
2023/08/31 08:36:01;;;;;;;5.22;2.10;;;;;;;34.89;26.14;98948.91;4997921;28;20199;-63
2023/08/31 08:38:28;;;;;;;3.78;1.80;;;;;;;34.55;27.15;98946.28;4999763;28;20271;-62
2023/08/31 08:40:55;;;;;;;3.33;2.10;;;;;;;34.53;28.42;98945.88;4999233;28;20202;-63
2023/08/31 08:43:26;;;;;;;5.95;2.08;;;;;;;34.71;27.00;98947.78;4994890;28;20197;-62
2023/08/31 08:45:54;;;;;;;2.65;1.70;;;;;;;34.86;27.03;98952.41;5007299;28;20253;-62
2023/08/31 08:48:23;;;;;;;4.95;1.70;;;;;;;34.83;26.81;98955.09;4994307;28;20693;-63
2023/08/31 08:50:50;;;;;;;2.38;2.10;;;;;;;35.13;25.54;98953.22;4999657;28;20731;-62
2023/08/31 08:53:17;;;;;;;3.33;1.60;;;;;;;35.26;26.23;98946.31;5018288;28;20657;-63
2023/08/31 08:55:44;;;;;;;4.80;2.05;;;;;;;35.58;26.72;98947.63;5002980;28;20197;-61
2023/08/31 08:58:11;;;;;;;4.57;1.95;;;;;;;35.78;25.29;98940.81;5014932;28;20200;-63
2023/08/31 09:00:38;;;;;;;9.82;2.10;;;;;;;35.82;25.31;98941.66;5014749;28;20194;-61
2023/08/31 09:03:05;;;;;;;2.17;1.92;;;;;;;35.76;25.06;98954.25;5013320;28;20201;-62
2023/08/31 09:05:33;;;;;;;13.13;2.85;;;;;;;35.58;24.68;98942.91;5015817;28;20218;-62
2023/08/31 09:08:07;;;;;;;4.43;1.75;;;;;;;35.73;24.23;98938.38;5017326;28;20197;-65
2023/08/31 09:10:37;;;;;;;3.38;1.95;;;;;;;36.06;24.96;98941.19;5018112;28;20221;-64
2023/08/31 09:13:08;;;;;;;5.60;2.28;;;;;;;36.26;24.84;98935.09;5018733;28;20256;-64
2023/08/31 09:15:40;;;;;;;7.82;2.03;;;;;;;36.50;25.06;98944.88;5017592;28;20252;-64
2023/08/31 09:18:07;;;;;;;2.40;1.55;;;;;;;36.36;23.64;98944.69;5016798;28;20285;-64
2023/08/31 09:20:44;;;;;;;1.90;1.80;;;;;;;36.60;24.12;98933.09;5005046;28;20194;-63
2023/08/31 09:23:10;;;;;;;9.20;2.47;;;;;;;36.72;23.91;98936.41;4989451;28;20733;-64
2023/08/31 09:25:43;;;;;;;3.55;1.75;;;;;;;36.89;24.06;98926.66;5005383;28;20790;-63
2023/08/31 09:28:10;;;;;;;6.88;2.35;;;;;;;36.59;23.79;98937.03;4995895;28;20274;-62
2023/08/31 09:30:37;;;;;;;5.85;1.88;;;;;;;36.61;23.61;98934.66;4998881;28;20194;-63
2023/08/31 09:33:05;;;;;;;1.90;1.73;;;;;;;36.29;23.44;98939.13;4987468;28;20605;-62
2023/08/31 09:35:32;;;;;;;3.22;2.35;;;;;;;36.16;24.25;98921.13;5002545;28;20850;-63
2023/08/31 09:38:02;;;;;;;3.55;1.80;;;;;;;36.35;23.64;98930.09;4989350;28;20287;-62
2023/08/31 09:40:28;;;;;;;4.90;2.00;;;;;;;36.61;23.44;98932.72;4995376;28;20578;-63
2023/08/31 09:42:55;;;;;;;2.13;1.95;;;;;;;36.07;24.24;98932.50;4987350;28;20289;-64
2023/08/31 09:45:31;;;;;;;6.07;2.22;;;;;;;35.91;23.84;98922.81;5002954;28;20364;-62
2023/08/31 09:48:00;;;;;;;2.42;1.83;;;;;;;35.92;24.90;98929.94;4991042;28;20671;-63
2023/08/31 09:50:27;;;;;;;3.22;1.98;;;;;;;35.54;24.42;98922.72;4996987;28;20257;-65
2023/08/31 09:52:57;;;;;;;2.95;2.00;;;;;;;35.80;23.85;98924.66;4990108;28;20273;-64
2023/08/31 09:55:27;;;;;;;2.55;2.35;;;;;;;35.61;24.46;98931.09;5005852;28;20750;-63
2023/08/31 09:57:58;;;;;;;6.25;2.50;;;;;;;35.16;25.15;98936.75;4997156;28;20613;-64
2023/08/31 10:00:26;;;;;;;2.53;1.95;;;;;;;34.88;24.89;98933.50;4997572;28;20285;-64
2023/08/31 10:02:54;;;;;;;6.65;2.25;;;;;;;34.42;25.29;98931.88;4989283;28;20203;-64
2023/08/31 10:05:22;;;;;;;56.45;5.15;;;;;;;34.61;25.45;98934.59;5008988;28;20583;-64
2023/08/31 10:07:49;;;;;;;3.17;2.63;;;;;;;34.50;25.35;98935.56;5022111;28;20193;-64
2023/08/31 10:10:17;;;;;;;4.55;2.17;;;;;;;34.17;25.74;98927.81;5031673;28;20197;-64
2023/08/31 10:12:46;;;;;;;3.08;2.15;;;;;;;34.26;25.29;98930.34;5031317;28;20247;-63
2023/08/31 10:15:13;;;;;;;8.25;2.25;;;;;;;34.40;25.39;98931.44;5031089;28;20233;-64
2023/08/31 10:17:41;;;;;;;8.93;2.45;;;;;;;34.29;25.63;98929.63;5031233;28;20193;-63
2023/08/31 10:20:10;;;;;;;9.38;2.30;;;;;;;34.43;25.41;98930.72;5024037;28;20224;-63
2023/08/31 10:22:38;;;;;;;15.35;3.30;;;;;;;34.61;26.24;98928.25;5011688;28;20202;-63
2023/08/31 10:25:06;;;;;;;11.15;2.50;;;;;;;34.63;26.44;98924.00;5011462;28;20312;-63
2023/08/31 10:27:37;;;;;;;5.28;2.13;;;;;;;34.75;26.89;98920.25;5011355;28;20221;-63
2023/08/31 10:30:30;;;;;;;2.38;2.10;;;;;;;34.95;26.41;98930.06;5011303;28;20248;-63
2023/08/31 10:33:24;;;;;;;7.80;2.20;;;;;;;35.25;25.13;98919.88;5009022;28;20317;-62
2023/08/31 10:35:52;;;;;;;3.33;2.20;;;;;;;35.57;24.75;98918.41;4965829;28;20197;-62
2023/08/31 10:38:26;;;;;;;6.57;2.03;;;;;;;35.75;24.32;98920.25;5011399;28;20297;-62
2023/08/31 10:41:26;;;;;;;2.60;2.03;;;;;;;35.94;24.67;98922.88;5011420;28;20277;-62
2023/08/31 10:43:57;;;;;;;4.93;2.40;;;;;;;36.05;23.48;98928.53;4997379;28;20202;-62
2023/08/31 10:46:30;;;;;;;3.80;1.88;;;;;;;35.96;24.68;98936.28;5014992;28;20277;-63
2023/08/31 10:48:58;;;;;;;3.58;1.90;;;;;;;35.95;23.55;98926.41;5015028;28;20247;-62
2023/08/31 10:51:26;;;;;;;3.22;2.08;;;;;;;35.97;23.94;98924.88;5014952;28;20221;-61
2023/08/31 10:54:04;;;;;;;3.17;2.10;;;;;;;36.08;24.18;98933.28;5007602;28;20256;-61
2023/08/31 10:56:31;;;;;;;2.95;2.10;;;;;;;36.11;23.70;98938.06;5010413;28;20649;-62
2023/08/31 10:58:59;;;;;;;4.00;1.83;;;;;;;35.70;24.25;98928.03;5011177;28;20277;-61
2023/08/31 11:01:54;;;;;;;4.40;2.63;;;;;;;35.69;25.93;98926.47;5002586;28;20196;-62
2023/08/31 11:04:22;;;;;;;2.30;1.73;;;;;;;35.37;24.89;98933.50;4996597;28;20293;-62
2023/08/31 11:06:49;;;;;;;1.98;1.80;;;;;;;35.35;25.14;98933.09;4997313;28;20666;-63
2023/08/31 11:09:21;;;;;;;5.05;2.25;;;;;;;35.37;25.20;98930.75;5013319;28;20215;-65
2023/08/31 11:11:48;;;;;;;15.98;4.50;;;;;;;35.46;25.80;98929.31;5013207;28;20214;-64
2023/08/31 11:14:15;;;;;;;5.13;2.03;;;;;;;35.51;24.83;98922.66;5012588;28;20281;-64
2023/08/31 11:16:42;;;;;;;5.18;2.35;;;;;;;35.53;25.55;98920.31;5012658;28;20290;-64
2023/08/31 11:19:10;;;;;;;8.65;2.47;;;;;;;35.42;25.97;98914.66;5010248;28;20580;-65
2023/08/31 11:21:38;;;;;;;4.35;2.17;;;;;;;35.20;26.31;98915.50;5012875;28;20194;-64
2023/08/31 11:24:06;;;;;;;3.65;2.33;;;;;;;35.02;26.72;98927.44;5010817;28;20276;-61
2023/08/31 11:26:33;;;;;;;4.25;2.35;;;;;;;35.22;25.43;98923.38;5009620;28;20186;-61
2023/08/31 11:29:00;;;;;;;2.45;2.25;;;;;;;35.40;25.00;98918.97;4990265;28;20207;-62
2023/08/31 11:31:27;;;;;;;6.05;1.95;;;;;;;35.56;24.69;98914.06;4992681;28;20195;-60
2023/08/31 11:33:55;;;;;;;2.25;1.83;;;;;;;35.69;24.76;98913.41;4990791;28;20960;-60
2023/08/31 11:36:25;;;;;;;2.85;2.15;;;;;;;35.54;25.36;98913.63;5000006;28;20286;-60
2023/08/31 11:38:52;;;;;;;2.20;2.10;;;;;;;35.37;25.53;98898.41;4994465;28;20199;-61
2023/08/31 11:41:18;;;;;;;12.30;2.63;;;;;;;35.63;25.10;98911.34;4991709;28;20203;-60